createdAt,value
2023-01-15T00:01:56.663Z,2.40
2023-01-15T00:04:23.517Z,3.00
2023-01-15T00:06:50.754Z,2.20
2023-01-15T00:09:17.716Z,1.80
2023-01-15T00:11:44.563Z,2.80
2023-01-15T00:14:12.603Z,2.50
2023-01-15T00:16:40.815Z,3.50
2023-01-15T00:19:11.006Z,1.20
2023-01-15T00:21:38.197Z,6.70
2023-01-15T00:24:24.039Z,8.50
2023-01-15T01:01:17.638Z,1.10
2023-01-15T01:03:48.991Z,0.80
2023-01-15T01:06:17.138Z,1.40
2023-01-15T01:08:46.176Z,4.80
2023-01-15T01:11:18.205Z,3.30
2023-01-15T01:13:45.734Z,2.60
2023-01-15T01:16:33.794Z,2.60
2023-01-15T01:19:01.850Z,2.30
2023-01-15T01:21:28.775Z,1.70
2023-01-15T01:23:55.848Z,1.50
2023-01-15T01:26:22.719Z,2.60
2023-01-15T01:28:50.835Z,1.20
2023-01-15T01:31:18.119Z,1.40
2023-01-15T01:33:45.006Z,2.20
2023-01-15T01:36:12.073Z,1.80
2023-01-15T01:38:39.251Z,3.10
2023-01-15T01:41:06.170Z,1.10
2023-01-15T01:43:53.180Z,2.20
2023-01-15T01:46:20.056Z,2.80
2023-01-15T01:48:46.960Z,4.10
2023-01-15T01:51:14.222Z,2.00
2023-01-15T01:53:41.157Z,1.50
2023-01-15T01:56:08.964Z,2.00
2023-01-15T01:58:35.963Z,2.30
2023-01-15T02:01:02.885Z,3.60
2023-01-15T02:03:35.826Z,4.40
2023-01-15T02:06:04.140Z,2.70
2023-01-15T02:08:32.646Z,1.80
2023-01-15T02:10:59.585Z,1.50
2023-01-15T02:13:40.797Z,2.30
2023-01-15T02:16:17.031Z,1.70
2023-01-15T02:19:10.595Z,1.60
2023-01-15T02:21:43.414Z,1.00
2023-01-15T02:24:56.393Z,1.20
2023-01-15T02:27:24.191Z,1.60
2023-01-15T02:30:31.654Z,2.30
2023-01-15T02:33:05.759Z,1.60
2023-01-15T02:35:48.251Z,1.40
2023-01-15T02:38:17.252Z,1.00
2023-01-15T02:40:45.532Z,3.90
2023-01-15T02:43:13.499Z,4.10
2023-01-15T02:45:42.329Z,2.60
2023-01-15T02:48:16.532Z,1.80
2023-01-15T02:50:52.984Z,0.60
2023-01-15T02:53:23.900Z,1.90
2023-01-15T02:55:51.935Z,0.70
2023-01-15T02:58:23.350Z,0.90
2023-01-15T03:00:51.611Z,3.20
2023-01-15T03:03:28.459Z,3.20
2023-01-15T03:06:02.403Z,3.00
2023-01-15T03:08:29.318Z,1.90
2023-01-15T03:11:08.242Z,2.50
2023-01-15T03:14:14.917Z,3.40
2023-01-15T03:16:48.213Z,3.00
2023-01-15T03:19:27.902Z,3.00
2023-01-15T03:21:57.456Z,2.40
2023-01-15T03:24:27.804Z,0.90
2023-01-15T03:26:54.820Z,1.10
2023-01-15T03:29:23.195Z,3.10
2023-01-15T03:31:54.135Z,2.70
2023-01-15T03:34:21.231Z,1.40
2023-01-15T03:36:48.532Z,2.80
2023-01-15T03:39:15.373Z,0.90
2023-01-15T03:42:15.082Z,1.10
2023-01-15T03:44:58.207Z,0.70
2023-01-15T03:47:45.223Z,0.90
2023-01-15T03:50:53.134Z,1.40
2023-01-15T03:53:41.091Z,2.00
2023-01-15T03:56:14.583Z,1.20
2023-01-15T03:58:46.114Z,1.40
2023-01-15T04:01:16.655Z,2.60
2023-01-15T04:03:43.697Z,2.80
2023-01-15T04:06:10.671Z,2.40
2023-01-15T04:08:39.619Z,3.30
2023-01-15T04:11:06.972Z,2.50
2023-01-15T04:13:40.767Z,1.80
2023-01-15T04:16:13.656Z,3.00
2023-01-15T04:18:41.620Z,2.50
2023-01-15T04:21:08.754Z,4.00
2023-01-15T04:23:35.608Z,1.90
2023-01-15T04:26:02.681Z,1.80
2023-01-15T04:28:29.581Z,2.60
2023-01-15T04:30:57.993Z,2.40
2023-01-15T04:33:25.016Z,3.40
2023-01-15T04:35:52.071Z,2.70
2023-01-15T04:38:18.937Z,1.90
2023-01-15T04:41:04.687Z,3.30
2023-01-15T04:43:50.313Z,2.80
2023-01-15T04:46:21.590Z,3.00
2023-01-15T04:48:48.480Z,4.70
2023-01-15T04:51:15.399Z,4.80
2023-01-15T04:53:42.220Z,2.70
2023-01-15T04:56:09.030Z,3.00
2023-01-15T04:58:36.020Z,4.50
2023-01-15T05:01:03.339Z,3.70
2023-01-15T05:03:30.980Z,2.60
2023-01-15T05:06:02.194Z,6.60
2023-01-15T05:08:29.135Z,2.90
2023-01-15T05:10:56.064Z,2.30
2023-01-15T05:13:22.893Z,3.70
2023-01-15T05:15:49.936Z,4.00
2023-01-15T05:18:16.993Z,2.00
2023-01-15T05:20:44.140Z,3.10
2023-01-15T05:23:11.095Z,2.20
2023-01-15T05:25:38.337Z,1.70
2023-01-15T05:28:05.420Z,2.40
2023-01-15T05:30:32.341Z,2.80
2023-01-15T05:32:59.187Z,2.00
2023-01-15T05:35:26.105Z,2.20
2023-01-15T05:37:52.947Z,4.10
2023-01-15T05:40:19.787Z,2.80
2023-01-15T05:42:46.611Z,3.60
2023-01-15T05:45:13.454Z,3.80
2023-01-15T05:47:40.308Z,2.10
2023-01-15T05:50:07.786Z,4.40
2023-01-15T05:52:34.616Z,2.30
2023-01-15T05:55:01.548Z,2.20
2023-01-15T05:57:28.384Z,2.90
2023-01-15T05:59:56.596Z,1.50
2023-01-15T06:02:23.481Z,3.90
2023-01-15T06:04:50.391Z,3.50
2023-01-15T06:07:20.165Z,2.80
2023-01-15T06:09:47.101Z,2.30
2023-01-15T06:12:14.045Z,3.10
2023-01-15T06:14:40.928Z,2.60
2023-01-15T06:17:07.849Z,3.40
2023-01-15T06:19:36.000Z,4.20
2023-01-15T06:22:07.430Z,1.40
2023-01-15T06:24:43.675Z,1.40
2023-01-15T06:27:13.314Z,2.00
2023-01-15T06:29:50.581Z,4.00
2023-01-15T06:32:17.462Z,4.50
2023-01-15T06:34:44.698Z,2.90
2023-01-15T06:37:38.873Z,3.80
2023-01-15T06:40:08.447Z,6.40
2023-01-15T06:42:55.128Z,5.40
2023-01-15T06:45:41.790Z,2.70
2023-01-15T06:48:08.632Z,2.70
2023-01-15T06:50:35.453Z,2.40
2023-01-15T06:53:02.284Z,3.00
2023-01-15T06:55:29.256Z,3.30
2023-01-15T06:57:56.408Z,2.10
2023-01-15T07:00:23.472Z,5.10
2023-01-15T07:02:52.298Z,2.20
2023-01-15T07:05:19.615Z,1.70
2023-01-15T07:07:46.475Z,2.10
2023-01-15T07:10:13.297Z,3.10
2023-01-15T07:12:40.213Z,1.20
2023-01-15T07:15:07.688Z,1.50
2023-01-15T07:17:34.561Z,2.50
2023-01-15T07:20:01.420Z,1.80
2023-01-15T07:22:28.378Z,2.00
2023-01-15T07:24:55.232Z,3.60
2023-01-15T07:27:22.140Z,4.10
2023-01-15T07:29:49.950Z,4.10
2023-01-15T07:32:26.682Z,2.40
2023-01-15T07:34:55.094Z,4.00
2023-01-15T07:37:22.035Z,2.30
2023-01-15T07:39:48.986Z,4.20
2023-01-15T07:42:35.350Z,3.00
2023-01-15T07:45:28.142Z,2.30
2023-01-15T07:48:14.016Z,3.30
2023-01-15T07:50:40.875Z,2.30
2023-01-15T07:53:07.656Z,3.70
2023-01-15T07:55:35.776Z,3.00
2023-01-15T07:58:03.520Z,2.00
2023-01-15T08:00:30.402Z,1.90
2023-01-15T08:02:57.291Z,1.80
2023-01-15T08:05:24.160Z,1.90
2023-01-15T08:07:51.053Z,1.40
2023-01-15T08:10:18.288Z,2.80
2023-01-15T08:13:03.898Z,2.30
2023-01-15T08:15:32.379Z,2.60
2023-01-15T08:17:59.240Z,2.90
2023-01-15T08:20:26.534Z,2.20
2023-01-15T08:22:53.763Z,2.00
2023-01-15T08:25:22.808Z,2.80
2023-01-15T08:27:49.698Z,3.30
2023-01-15T08:30:18.974Z,1.60
2023-01-15T08:32:45.946Z,2.00
2023-01-15T08:35:13.382Z,2.70
2023-01-15T08:37:41.659Z,2.00
2023-01-15T08:40:10.248Z,0.70
2023-01-15T08:42:37.171Z,2.50
2023-01-15T08:45:04.578Z,1.90
2023-01-15T08:47:32.588Z,1.50
2023-01-15T08:49:59.537Z,1.80
2023-01-15T08:52:26.404Z,2.90
2023-01-15T08:54:53.324Z,4.60
2023-01-15T08:57:20.216Z,2.20
2023-01-15T08:59:47.827Z,2.20
2023-01-15T09:02:15.076Z,1.90
2023-01-15T09:04:42.247Z,2.00
2023-01-15T09:07:09.304Z,2.00
2023-01-15T09:09:36.337Z,2.70
2023-01-15T09:12:03.281Z,2.80
2023-01-15T09:17:25.217Z,3.90
2023-01-15T09:19:52.231Z,2.70
2023-01-15T09:22:19.233Z,2.20
2023-01-15T09:24:46.681Z,2.80
2023-01-15T09:27:14.830Z,3.40
2023-01-15T09:29:41.721Z,4.10
2023-01-15T09:32:10.482Z,3.50
2023-01-15T09:34:37.468Z,2.20
2023-01-15T09:37:04.344Z,4.60
2023-01-15T09:39:31.486Z,2.80
2023-01-15T09:42:20.184Z,1.20
2023-01-15T09:44:52.994Z,2.30
2023-01-15T09:47:26.013Z,2.80
2023-01-15T09:50:27.229Z,5.90
2023-01-15T09:53:09.639Z,5.70
2023-01-15T09:55:44.021Z,4.40
2023-01-15T09:58:11.001Z,3.10
2023-01-15T10:00:44.949Z,4.30
2023-01-15T10:03:30.441Z,4.70
2023-01-15T10:06:06.901Z,4.50
2023-01-15T10:08:37.287Z,5.80
2023-01-15T10:11:54.438Z,5.30
2023-01-15T10:14:31.815Z,4.60
2023-01-15T10:16:58.774Z,5.00
2023-01-15T10:19:31.923Z,3.90
2023-01-15T10:22:12.713Z,4.20
2023-01-15T10:24:40.393Z,4.30
2023-01-15T10:27:34.115Z,2.80
2023-01-15T10:30:02.520Z,2.60
2023-01-15T10:33:01.405Z,1.70
2023-01-15T10:35:55.575Z,2.90
2023-01-15T10:38:31.825Z,1.10
2023-01-15T10:41:20.781Z,1.90
2023-01-15T10:43:54.848Z,4.60
2023-01-15T10:46:33.556Z,3.90
2023-01-15T10:49:03.954Z,2.30
2023-01-15T10:51:35.561Z,2.80
2023-01-15T10:54:07.336Z,9.30
2023-01-15T10:56:40.576Z,6.60
2023-01-15T10:59:18.229Z,4.70
2023-01-15T11:01:45.263Z,3.60
2023-01-15T11:04:13.688Z,2.50
2023-01-15T11:06:40.579Z,2.50
2023-01-15T11:09:11.504Z,2.40
2023-01-15T11:11:57.562Z,4.80
2023-01-15T11:17:38.602Z,1.90
2023-01-15T11:20:14.497Z,2.70
2023-01-15T11:22:51.708Z,2.10
2023-01-15T11:25:56.214Z,3.30
2023-01-15T11:28:40.238Z,1.80
2023-01-15T11:31:08.170Z,3.40
2023-01-15T11:33:35.395Z,2.50
2023-01-15T11:36:06.289Z,2.60
2023-01-15T11:38:47.176Z,3.10
2023-01-15T11:41:50.639Z,3.50
2023-01-15T11:44:37.947Z,5.20
2023-01-15T11:47:30.867Z,2.90
2023-01-15T11:50:16.842Z,8.40
2023-01-15T11:52:48.272Z,11.10
2023-01-15T11:55:22.047Z,8.90
2023-01-15T11:57:49.802Z,10.00
2023-01-15T12:00:37.218Z,9.90
2023-01-15T12:03:17.208Z,6.20
2023-01-15T12:05:56.054Z,6.80
2023-01-15T12:08:56.201Z,6.70
2023-01-15T12:11:46.520Z,10.00
2023-01-15T12:14:51.811Z,9.90
2023-01-15T12:17:46.845Z,5.70
2023-01-15T12:20:17.329Z,7.60
2023-01-15T12:23:03.508Z,4.70
2023-01-15T12:25:38.259Z,6.20
2023-01-15T12:28:18.385Z,6.60
2023-01-15T12:31:05.551Z,6.30
2023-01-15T12:33:55.353Z,5.30
2023-01-15T12:36:28.285Z,9.60
2023-01-15T12:39:06.635Z,7.70
2023-01-15T12:41:54.860Z,8.80
2023-01-15T12:44:46.812Z,8.10
2023-01-15T12:47:16.782Z,6.70
2023-01-15T12:49:46.557Z,5.20
2023-01-15T12:52:22.891Z,3.20
2023-01-15T12:55:03.886Z,6.20
2023-01-15T12:57:35.224Z,6.00
2023-01-15T13:00:05.209Z,7.20
2023-01-15T13:02:40.896Z,6.10
2023-01-15T13:09:02.290Z,3.20
2023-01-15T13:11:29.311Z,4.70
2023-01-15T13:17:25.525Z,3.40
2023-01-15T13:20:06.475Z,3.00
2023-01-15T13:22:33.459Z,3.70
2023-01-15T13:25:12.650Z,1.80
2023-01-15T13:27:58.226Z,4.70
2023-01-15T13:30:42.616Z,3.00
2023-01-15T13:33:21.199Z,3.60
2023-01-15T13:35:50.422Z,3.30
2023-01-15T13:38:22.357Z,3.70
2023-01-15T13:40:53.268Z,2.50
2023-01-15T13:43:42.348Z,2.20
2023-01-15T13:46:16.887Z,4.20
2023-01-15T13:48:49.492Z,4.20
2023-01-15T13:54:36.650Z,3.00
2023-01-15T13:57:34.484Z,1.70
2023-01-15T14:00:05.914Z,3.60
2023-01-15T14:02:41.243Z,2.70
2023-01-15T14:05:26.887Z,1.90
2023-01-15T14:07:53.807Z,2.90
2023-01-15T14:10:24.585Z,3.40
2023-01-15T14:13:07.853Z,1.90
2023-01-15T14:15:59.945Z,2.90
2023-01-15T14:19:06.444Z,3.70
2023-01-15T14:22:27.583Z,2.10
2023-01-15T14:25:14.431Z,3.00
2023-01-15T14:27:48.443Z,1.90
2023-01-15T14:30:37.121Z,2.00
2023-01-15T14:33:30.244Z,1.70
2023-01-15T14:35:57.260Z,2.80
2023-01-15T14:38:25.714Z,1.70
2023-01-15T14:40:56.301Z,1.50
2023-01-15T14:43:27.889Z,2.60
2023-01-15T14:45:55.214Z,2.40
2023-01-15T14:48:28.309Z,2.90
2023-01-15T14:51:06.716Z,3.20
2023-01-15T14:53:36.345Z,2.50
2023-01-15T14:56:23.634Z,2.20
2023-01-15T14:59:37.126Z,5.10
2023-01-15T15:02:19.205Z,2.70
2023-01-15T15:04:51.485Z,3.70
2023-01-15T15:07:23.011Z,2.20
2023-01-15T15:10:01.946Z,3.10
2023-01-15T15:16:13.120Z,2.10
2023-01-15T15:18:44.606Z,2.80
2023-01-15T15:21:26.295Z,1.00
2023-01-15T15:23:58.288Z,3.10
2023-01-15T15:26:28.164Z,3.20
2023-01-15T15:29:07.548Z,3.10
2023-01-15T15:31:37.442Z,3.10
2023-01-15T15:34:05.640Z,3.40
2023-01-15T15:36:33.830Z,2.90
2023-01-15T15:39:14.279Z,2.90
2023-01-15T15:42:00.301Z,1.90
2023-01-15T15:45:09.435Z,2.40
2023-01-15T15:47:57.871Z,1.70
2023-01-15T15:50:31.366Z,2.20
2023-01-15T15:52:58.629Z,3.10
2023-01-15T15:55:28.729Z,1.50
2023-01-15T15:58:00.452Z,2.80
2023-01-15T16:00:35.596Z,2.20
2023-01-15T16:03:07.840Z,3.10
2023-01-15T16:05:35.370Z,2.10
2023-01-15T16:08:32.272Z,2.00
2023-01-15T16:11:07.339Z,2.30
2023-01-15T16:13:47.450Z,3.30
2023-01-15T16:16:17.047Z,0.60
2023-01-15T16:18:48.783Z,1.50
2023-01-15T16:21:35.401Z,2.70
2023-01-15T16:24:04.144Z,1.80
2023-01-15T16:26:42.392Z,2.00
2023-01-15T16:29:23.786Z,1.10
2023-01-15T16:31:51.037Z,3.60
2023-01-15T16:34:33.807Z,2.60
2023-01-15T16:37:00.947Z,6.20
2023-01-15T16:39:28.145Z,3.00
2023-01-15T16:41:57.752Z,4.80
2023-01-15T16:44:52.629Z,3.10
2023-01-15T16:47:24.663Z,2.60
2023-01-15T16:49:51.601Z,3.80
2023-01-15T16:52:42.080Z,5.20
2023-01-15T16:55:31.103Z,9.20
2023-01-15T16:58:20.302Z,10.20
2023-01-15T17:00:53.372Z,6.00
2023-01-15T17:03:25.705Z,7.30
2023-01-15T17:05:56.320Z,7.50
2023-01-15T17:08:33.243Z,4.70
2023-01-15T17:11:01.730Z,4.80
2023-01-15T17:13:37.553Z,5.10
2023-01-15T17:16:14.164Z,4.90
2023-01-15T17:18:41.144Z,0.90
2023-01-15T17:21:12.302Z,4.00
2023-01-15T17:23:43.178Z,2.90
2023-01-15T17:26:22.080Z,2.00
2023-01-15T17:28:49.057Z,1.90
2023-01-15T17:31:29.660Z,4.60
2023-01-15T17:33:58.175Z,3.40
2023-01-15T17:36:25.362Z,2.30
2023-01-15T17:38:54.171Z,3.00
2023-01-15T17:41:22.525Z,3.00
2023-01-15T17:43:49.709Z,3.50
2023-01-15T17:46:17.403Z,2.50
2023-01-15T17:48:44.551Z,1.50
2023-01-15T17:51:14.707Z,1.20
2023-01-15T17:53:42.048Z,2.20
2023-01-15T17:56:27.758Z,1.40
2023-01-15T17:59:13.625Z,2.70
2023-01-15T18:02:02.225Z,1.30
2023-01-15T18:04:56.761Z,1.60
2023-01-15T18:07:25.073Z,1.10
2023-01-15T18:09:56.423Z,1.70
2023-01-15T18:12:23.842Z,4.10
2023-01-15T18:38:38.382Z,1.40
2023-01-15T18:41:45.400Z,2.40
2023-01-15T18:44:36.015Z,3.30
2023-01-15T18:47:05.028Z,2.30
2023-01-15T18:49:32.358Z,1.90
2023-01-15T18:52:20.260Z,3.70
2023-01-15T18:54:50.149Z,2.60
2023-01-15T18:57:17.311Z,2.20
2023-01-15T18:59:47.520Z,2.00
2023-01-15T19:02:16.065Z,1.40
2023-01-15T19:04:43.147Z,2.70
2023-01-15T19:07:10.443Z,2.90
2023-01-15T19:09:38.439Z,5.00
2023-01-15T19:12:05.983Z,2.40
2023-01-15T19:14:52.365Z,6.00
2023-01-15T19:17:42.774Z,2.00
2023-01-15T19:20:11.863Z,2.80
2023-01-15T19:22:57.637Z,2.70
2023-01-15T19:25:26.629Z,2.30
2023-01-15T19:27:53.878Z,2.50
2023-01-15T19:30:21.337Z,2.80
2023-01-15T19:32:48.489Z,3.20
2023-01-15T19:35:15.421Z,3.60
2023-01-15T19:37:42.495Z,3.30
2023-01-15T19:40:17.859Z,2.20
2023-01-15T19:43:03.534Z,1.60
2023-01-15T19:45:49.483Z,3.00
2023-01-15T19:48:35.798Z,1.50
2023-01-15T19:51:06.204Z,2.30
2023-01-15T19:53:34.842Z,3.10
2023-01-15T19:56:03.209Z,2.40
2023-01-15T19:58:32.048Z,3.90
2023-01-15T20:00:59.127Z,3.00
2023-01-15T20:03:26.076Z,4.50
2023-01-15T20:05:53.205Z,4.20
2023-01-15T20:08:20.135Z,3.70
2023-01-15T20:10:49.118Z,3.10
2023-01-15T20:13:38.266Z,3.40
2023-01-15T20:16:11.247Z,4.30
2023-01-15T20:18:38.936Z,2.30
2023-01-15T20:21:06.615Z,1.80
2023-01-15T20:23:33.774Z,2.30
2023-01-15T20:26:05.491Z,3.80
2023-01-15T20:28:32.975Z,1.90
2023-01-15T20:31:00.408Z,4.10
2023-01-15T20:33:27.655Z,2.80
2023-01-15T20:35:54.834Z,4.10
2023-01-15T20:38:23.374Z,2.60
2023-01-15T20:40:54.112Z,3.90
2023-01-15T20:43:39.799Z,2.60
2023-01-15T20:46:11.962Z,2.00
2023-01-15T20:48:57.647Z,1.40
2023-01-15T20:51:24.536Z,5.00
2023-01-15T20:53:53.295Z,3.70
2023-01-15T20:56:20.125Z,2.20
2023-01-15T20:58:47.050Z,1.80
2023-01-15T21:01:14.005Z,1.60
2023-01-15T21:03:41.179Z,1.10
2023-01-15T21:06:08.615Z,1.10
2023-01-15T21:08:35.669Z,0.90
2023-01-15T21:11:02.693Z,2.00
2023-01-15T21:13:31.244Z,1.90
2023-01-15T21:16:03.038Z,2.20
2023-01-15T21:18:30.777Z,1.10
2023-01-15T21:20:57.713Z,1.10
2023-01-15T21:23:24.869Z,1.30
2023-01-15T21:25:51.815Z,1.20
2023-01-15T21:28:18.703Z,1.70
2023-01-15T21:30:45.759Z,1.00
2023-01-15T21:33:12.759Z,1.60
2023-01-15T21:35:40.721Z,1.60
2023-01-15T21:38:08.310Z,0.90
2023-01-15T21:40:38.422Z,1.90
2023-01-15T21:43:25.662Z,0.80
2023-01-15T21:45:52.610Z,1.60
2023-01-15T21:48:19.609Z,0.90
2023-01-15T21:50:46.590Z,1.10
2023-01-15T21:53:13.515Z,1.40
2023-01-15T21:55:40.534Z,0.50
2023-01-15T21:58:07.338Z,0.30
2023-01-15T22:00:34.522Z,0.80
2023-01-15T22:03:01.475Z,2.40
2023-01-15T22:05:28.513Z,1.20
2023-01-15T22:07:56.294Z,2.60
2023-01-15T22:10:23.854Z,1.80
2023-01-15T22:12:50.773Z,0.80
2023-01-15T22:15:17.668Z,0.60
2023-01-15T22:17:44.659Z,0.70
2023-01-15T22:20:12.633Z,0.90
2023-01-15T22:22:39.780Z,1.60
2023-01-15T22:25:08.724Z,1.00
2023-01-15T22:27:40.794Z,1.00
2023-01-15T22:30:09.874Z,1.40
2023-01-15T22:32:37.198Z,0.90
2023-01-15T22:35:05.455Z,0.90
2023-01-15T22:37:32.342Z,1.30
2023-01-15T22:39:59.233Z,2.10
2023-01-15T22:42:27.928Z,1.00
2023-01-15T22:44:56.137Z,0.50
2023-01-15T22:47:23.352Z,1.30
2023-01-15T22:49:50.321Z,1.50
2023-01-15T22:52:17.221Z,1.30
2023-01-15T22:54:45.319Z,0.80
2023-01-15T22:57:13.091Z,1.60
2023-01-15T22:59:40.267Z,0.70
2023-01-15T23:02:08.263Z,0.50
2023-01-15T23:04:35.362Z,1.90
2023-01-15T23:07:02.826Z,0.50
2023-01-15T23:09:29.924Z,2.00
2023-01-15T23:11:56.864Z,1.30
2023-01-15T23:14:23.925Z,1.00
2023-01-15T23:16:50.854Z,1.50
2023-01-15T23:19:18.435Z,0.60
2023-01-15T23:21:45.467Z,0.50
2023-01-15T23:24:12.517Z,1.20
2023-01-15T23:26:39.430Z,0.90
2023-01-15T23:29:06.389Z,1.30
2023-01-15T23:31:33.409Z,0.70
2023-01-15T23:34:00.284Z,0.80
2023-01-15T23:36:27.313Z,1.00
2023-01-15T23:38:54.360Z,1.30
2023-01-15T23:41:41.373Z,0.40
2023-01-15T23:44:37.818Z,1.80
2023-01-15T23:47:08.118Z,0.70
2023-01-15T23:49:35.075Z,0.70
2023-01-15T23:52:02.222Z,0.70
2023-01-15T23:54:31.012Z,0.20
2023-01-15T23:56:58.983Z,0.70
2023-01-15T23:59:25.905Z,0.70
